sensor_id;sensor_type;location;lat;lon;timestamp;temperature;humidity
68556;HTU21D;55544;51.032;5.866;2023-02-01T00:01:54;7.24;83.87
68556;HTU21D;55544;51.032;5.866;2023-02-01T00:04:20;7.26;83.56
68556;HTU21D;55544;51.032;5.866;2023-02-01T00:06:46;7.25;83.06
68556;HTU21D;55544;51.032;5.866;2023-02-01T00:09:12;7.30;82.68
68556;HTU21D;55544;51.032;5.866;2023-02-01T00:11:38;7.32;82.29
68556;HTU21D;55544;51.032;5.866;2023-02-01T00:14:04;7.32;81.96
68556;HTU21D;55544;51.032;5.866;2023-02-01T00:16:31;7.25;81.79
68556;HTU21D;55544;51.032;5.866;2023-02-01T00:19:15;7.28;82.20
68556;HTU21D;55544;51.032;5.866;2023-02-01T00:21:41;7.27;82.23
68556;HTU21D;55544;51.032;5.866;2023-02-01T00:24:09;7.25;82.29
68556;HTU21D;55544;51.032;5.866;2023-02-01T00:26:44;7.13;82.85
68556;HTU21D;55544;51.032;5.866;2023-02-01T00:29:16;7.23;82.87
68556;HTU21D;55544;51.032;5.866;2023-02-01T00:31:42;7.22;82.58
68556;HTU21D;55544;51.032;5.866;2023-02-01T00:34:12;7.12;82.84
68556;HTU21D;55544;51.032;5.866;2023-02-01T00:36:38;7.05;82.97
68556;HTU21D;55544;51.032;5.866;2023-02-01T00:39:04;7.03;82.87
68556;HTU21D;55544;51.032;5.866;2023-02-01T00:41:30;7.00;82.69
68556;HTU21D;55544;51.032;5.866;2023-02-01T00:43:56;6.85;83.12
68556;HTU21D;55544;51.032;5.866;2023-02-01T00:46:22;6.89;83.10
68556;HTU21D;55544;51.032;5.866;2023-02-01T00:48:48;6.81;83.33
68556;HTU21D;55544;51.032;5.866;2023-02-01T00:51:18;6.72;83.63
68556;HTU21D;55544;51.032;5.866;2023-02-01T00:53:45;6.75;83.65
68556;HTU21D;55544;51.032;5.866;2023-02-01T00:56:11;6.69;83.87
68556;HTU21D;55544;51.032;5.866;2023-02-01T00:58:37;6.64;83.97
68556;HTU21D;55544;51.032;5.866;2023-02-01T01:01:09;6.67;83.88
68556;HTU21D;55544;51.032;5.866;2023-02-01T01:03:41;6.70;83.87
68556;HTU21D;55544;51.032;5.866;2023-02-01T01:06:10;6.70;83.78
68556;HTU21D;55544;51.032;5.866;2023-02-01T01:08:37;6.73;83.60
68556;HTU21D;55544;51.032;5.866;2023-02-01T01:11:15;6.74;83.91
68556;HTU21D;55544;51.032;5.866;2023-02-01T01:13:41;6.66;84.34
68556;HTU21D;55544;51.032;5.866;2023-02-01T01:16:10;6.81;84.14
68556;HTU21D;55544;51.032;5.866;2023-02-01T01:18:36;6.81;84.39
68556;HTU21D;55544;51.032;5.866;2023-02-01T01:21:04;6.84;84.24
68556;HTU21D;55544;51.032;5.866;2023-02-01T01:23:30;6.85;84.33
68556;HTU21D;55544;51.032;5.866;2023-02-01T01:25:56;6.85;84.67
68556;HTU21D;55544;51.032;5.866;2023-02-01T01:28:22;6.89;84.69
68556;HTU21D;55544;51.032;5.866;2023-02-01T01:30:48;6.97;84.39
68556;HTU21D;55544;51.032;5.866;2023-02-01T01:33:13;7.00;84.32
68556;HTU21D;55544;51.032;5.866;2023-02-01T01:35:39;7.02;84.38
68556;HTU21D;55544;51.032;5.866;2023-02-01T01:38:05;7.02;84.64
68556;HTU21D;55544;51.032;5.866;2023-02-01T01:40:31;6.99;84.88
68556;HTU21D;55544;51.032;5.866;2023-02-01T01:42:57;6.98;85.35
68556;HTU21D;55544;51.032;5.866;2023-02-01T01:45:32;6.95;85.77
68556;HTU21D;55544;51.032;5.866;2023-02-01T01:48:05;7.01;85.86
68556;HTU21D;55544;51.032;5.866;2023-02-01T01:50:42;7.04;85.73
68556;HTU21D;55544;51.032;5.866;2023-02-01T01:53:14;7.10;85.75
68556;HTU21D;55544;51.032;5.866;2023-02-01T01:55:44;7.11;85.78
68556;HTU21D;55544;51.032;5.866;2023-02-01T01:58:19;7.08;85.96
68556;HTU21D;55544;51.032;5.866;2023-02-01T02:00:47;7.08;86.11
68556;HTU21D;55544;51.032;5.866;2023-02-01T02:03:23;7.15;85.73
68556;HTU21D;55544;51.032;5.866;2023-02-01T02:05:54;7.07;85.98
68556;HTU21D;55544;51.032;5.866;2023-02-01T02:08:25;7.05;86.24
68556;HTU21D;55544;51.032;5.866;2023-02-01T02:10:52;7.19;85.58
68556;HTU21D;55544;51.032;5.866;2023-02-01T02:13:32;7.19;85.30
68556;HTU21D;55544;51.032;5.866;2023-02-01T02:30:22;7.23;84.74
68556;HTU21D;55544;51.032;5.866;2023-02-01T02:33:00;7.17;85.22
68556;HTU21D;55544;51.032;5.866;2023-02-01T02:35:40;7.23;84.65
68556;HTU21D;55544;51.032;5.866;2023-02-01T02:40:52;7.24;84.19
68556;HTU21D;55544;51.032;5.866;2023-02-01T02:43:35;7.24;83.83
68556;HTU21D;55544;51.032;5.866;2023-02-01T02:46:26;7.22;84.02
68556;HTU21D;55544;51.032;5.866;2023-02-01T02:51:52;7.18;83.64
68556;HTU21D;55544;51.032;5.866;2023-02-01T02:54:43;7.15;83.26
68556;HTU21D;55544;51.032;5.866;2023-02-01T02:57:25;7.13;82.40
68556;HTU21D;55544;51.032;5.866;2023-02-01T03:00:16;7.17;82.32
68556;HTU21D;55544;51.032;5.866;2023-02-01T03:03:02;7.05;82.34
68556;HTU21D;55544;51.032;5.866;2023-02-01T03:05:49;7.14;82.03
68556;HTU21D;55544;51.032;5.866;2023-02-01T03:08:24;7.12;81.57
68556;HTU21D;55544;51.032;5.866;2023-02-01T03:11:01;7.08;81.75
68556;HTU21D;55544;51.032;5.866;2023-02-01T03:13:54;7.05;81.41
68556;HTU21D;55544;51.032;5.866;2023-02-01T03:19:25;7.05;81.36
68556;HTU21D;55544;51.032;5.866;2023-02-01T03:22:03;7.01;81.39
68556;HTU21D;55544;51.032;5.866;2023-02-01T03:24:54;6.99;81.35
68556;HTU21D;55544;51.032;5.866;2023-02-01T03:27:49;6.99;81.09
68556;HTU21D;55544;51.032;5.866;2023-02-01T03:30:28;6.86;81.03
68556;HTU21D;55544;51.032;5.866;2023-02-01T03:32:59;6.93;81.47
68556;HTU21D;55544;51.032;5.866;2023-02-01T03:35:44;6.93;81.35
68556;HTU21D;55544;51.032;5.866;2023-02-01T03:41:09;6.85;81.62
68556;HTU21D;55544;51.032;5.866;2023-02-01T03:46:50;6.88;81.09
68556;HTU21D;55544;51.032;5.866;2023-02-01T03:49:28;6.87;80.75
68556;HTU21D;55544;51.032;5.866;2023-02-01T03:51:58;6.84;80.96
68556;HTU21D;55544;51.032;5.866;2023-02-01T03:54:26;6.82;80.76
68556;HTU21D;55544;51.032;5.866;2023-02-01T03:56:57;6.82;80.72
68556;HTU21D;55544;51.032;5.866;2023-02-01T03:59:24;6.84;80.36
68556;HTU21D;55544;51.032;5.866;2023-02-01T04:01:49;6.81;79.80
68556;HTU21D;55544;51.032;5.866;2023-02-01T04:04:16;6.88;79.81
68556;HTU21D;55544;51.032;5.866;2023-02-01T04:06:50;6.84;79.83
68556;HTU21D;55544;51.032;5.866;2023-02-01T04:09:16;6.90;79.21
68556;HTU21D;55544;51.032;5.866;2023-02-01T04:11:42;6.99;79.11
68556;HTU21D;55544;51.032;5.866;2023-02-01T04:14:09;6.86;79.11
68556;HTU21D;55544;51.032;5.866;2023-02-01T04:16:35;6.87;79.28
68556;HTU21D;55544;51.032;5.866;2023-02-01T04:19:00;6.90;78.82
68556;HTU21D;55544;51.032;5.866;2023-02-01T04:21:27;6.88;78.77
68556;HTU21D;55544;51.032;5.866;2023-02-01T04:23:54;6.91;78.07
68556;HTU21D;55544;51.032;5.866;2023-02-01T04:26:20;6.93;78.37
68556;HTU21D;55544;51.032;5.866;2023-02-01T04:28:47;7.00;78.23
68556;HTU21D;55544;51.032;5.866;2023-02-01T04:31:17;6.98;78.22
68556;HTU21D;55544;51.032;5.866;2023-02-01T04:33:43;6.97;77.56
68556;HTU21D;55544;51.032;5.866;2023-02-01T04:36:09;6.99;77.92
68556;HTU21D;55544;51.032;5.866;2023-02-01T04:38:35;6.94;77.71
68556;HTU21D;55544;51.032;5.866;2023-02-01T04:41:01;6.99;77.27
68556;HTU21D;55544;51.032;5.866;2023-02-01T04:43:26;6.94;77.39
68556;HTU21D;55544;51.032;5.866;2023-02-01T04:45:52;6.91;77.17
68556;HTU21D;55544;51.032;5.866;2023-02-01T04:48:20;6.84;76.73
68556;HTU21D;55544;51.032;5.866;2023-02-01T04:50:48;6.85;77.08
68556;HTU21D;55544;51.032;5.866;2023-02-01T04:53:14;6.79;77.21
68556;HTU21D;55544;51.032;5.866;2023-02-01T04:55:41;6.69;77.75
68556;HTU21D;55544;51.032;5.866;2023-02-01T04:58:07;6.73;77.51
68556;HTU21D;55544;51.032;5.866;2023-02-01T05:00:34;6.73;77.24
68556;HTU21D;55544;51.032;5.866;2023-02-01T05:03:00;6.72;77.34
68556;HTU21D;55544;51.032;5.866;2023-02-01T05:05:26;6.80;77.04
68556;HTU21D;55544;51.032;5.866;2023-02-01T05:07:52;6.72;77.23
68556;HTU21D;55544;51.032;5.866;2023-02-01T05:10:18;6.75;77.02
68556;HTU21D;55544;51.032;5.866;2023-02-01T05:12:44;6.70;77.30
68556;HTU21D;55544;51.032;5.866;2023-02-01T05:15:29;6.63;77.64
68556;HTU21D;55544;51.032;5.866;2023-02-01T05:17:55;6.66;77.39
68556;HTU21D;55544;51.032;5.866;2023-02-01T05:20:21;6.65;77.40
68556;HTU21D;55544;51.032;5.866;2023-02-01T05:22:47;6.61;77.51
68556;HTU21D;55544;51.032;5.866;2023-02-01T05:25:13;6.60;77.69
68556;HTU21D;55544;51.032;5.866;2023-02-01T05:27:39;6.59;77.79
68556;HTU21D;55544;51.032;5.866;2023-02-01T05:30:06;6.65;77.47
68556;HTU21D;55544;51.032;5.866;2023-02-01T05:32:33;6.69;77.31
68556;HTU21D;55544;51.032;5.866;2023-02-01T05:34:58;6.64;76.98
68556;HTU21D;55544;51.032;5.866;2023-02-01T05:37:24;6.64;77.53
68556;HTU21D;55544;51.032;5.866;2023-02-01T05:39:50;6.55;77.80
68556;HTU21D;55544;51.032;5.866;2023-02-01T05:42:16;6.63;77.45
68556;HTU21D;55544;51.032;5.866;2023-02-01T05:44:41;6.54;77.58
68556;HTU21D;55544;51.032;5.866;2023-02-01T05:47:07;6.53;77.57
68556;HTU21D;55544;51.032;5.866;2023-02-01T05:49:33;6.49;77.85
68556;HTU21D;55544;51.032;5.866;2023-02-01T05:51:58;6.42;78.17
68556;HTU21D;55544;51.032;5.866;2023-02-01T05:54:24;6.50;78.15
68556;HTU21D;55544;51.032;5.866;2023-02-01T05:56:50;6.52;77.95
68556;HTU21D;55544;51.032;5.866;2023-02-01T05:59:16;6.48;78.16
68556;HTU21D;55544;51.032;5.866;2023-02-01T06:01:42;6.42;78.40
68556;HTU21D;55544;51.032;5.866;2023-02-01T06:04:08;6.49;78.10
68556;HTU21D;55544;51.032;5.866;2023-02-01T06:06:34;6.54;77.92
68556;HTU21D;55544;51.032;5.866;2023-02-01T06:09:00;6.50;78.02
68556;HTU21D;55544;51.032;5.866;2023-02-01T06:11:26;6.49;78.21
68556;HTU21D;55544;51.032;5.866;2023-02-01T06:13:53;6.42;78.30
68556;HTU21D;55544;51.032;5.866;2023-02-01T06:16:19;6.51;78.19
68556;HTU21D;55544;51.032;5.866;2023-02-01T06:18:45;6.46;78.27
68556;HTU21D;55544;51.032;5.866;2023-02-01T06:21:11;6.49;78.02
68556;HTU21D;55544;51.032;5.866;2023-02-01T06:23:38;6.49;78.10
68556;HTU21D;55544;51.032;5.866;2023-02-01T06:26:06;6.51;78.09
68556;HTU21D;55544;51.032;5.866;2023-02-01T06:28:35;6.52;78.10
68556;HTU21D;55544;51.032;5.866;2023-02-01T06:31:05;6.54;77.92
68556;HTU21D;55544;51.032;5.866;2023-02-01T06:33:35;6.53;78.11
68556;HTU21D;55544;51.032;5.866;2023-02-01T06:36:03;6.52;77.76
68556;HTU21D;55544;51.032;5.866;2023-02-01T06:38:30;6.50;78.01
68556;HTU21D;55544;51.032;5.866;2023-02-01T06:40:57;6.50;78.11
68556;HTU21D;55544;51.032;5.866;2023-02-01T06:43:25;6.44;78.33
68556;HTU21D;55544;51.032;5.866;2023-02-01T06:45:52;6.42;78.08
68556;HTU21D;55544;51.032;5.866;2023-02-01T06:48:18;6.53;77.87
68556;HTU21D;55544;51.032;5.866;2023-02-01T06:50:44;6.40;78.24
68556;HTU21D;55544;51.032;5.866;2023-02-01T06:53:10;6.36;78.59
68556;HTU21D;55544;51.032;5.866;2023-02-01T06:55:36;6.39;78.39
68556;HTU21D;55544;51.032;5.866;2023-02-01T06:58:02;6.38;78.36
68556;HTU21D;55544;51.032;5.866;2023-02-01T07:00:29;6.31;78.63
68556;HTU21D;55544;51.032;5.866;2023-02-01T07:02:54;6.30;78.69
68556;HTU21D;55544;51.032;5.866;2023-02-01T07:05:21;6.25;78.86
68556;HTU21D;55544;51.032;5.866;2023-02-01T07:07:46;6.31;78.87
68556;HTU21D;55544;51.032;5.866;2023-02-01T07:10:12;6.24;79.05
68556;HTU21D;55544;51.032;5.866;2023-02-01T07:12:39;6.35;78.85
68556;HTU21D;55544;51.032;5.866;2023-02-01T07:15:05;6.35;78.92
68556;HTU21D;55544;51.032;5.866;2023-02-01T07:17:31;6.46;78.75
68556;HTU21D;55544;51.032;5.866;2023-02-01T07:19:57;6.35;79.27
68556;HTU21D;55544;51.032;5.866;2023-02-01T07:22:25;6.43;79.13
68556;HTU21D;55544;51.032;5.866;2023-02-01T07:24:51;6.44;79.26
68556;HTU21D;55544;51.032;5.866;2023-02-01T07:27:17;6.46;79.17
68556;HTU21D;55544;51.032;5.866;2023-02-01T07:29:43;6.52;78.90
68556;HTU21D;55544;51.032;5.866;2023-02-01T07:32:08;6.45;78.65
68556;HTU21D;55544;51.032;5.866;2023-02-01T07:34:34;6.37;79.11
68556;HTU21D;55544;51.032;5.866;2023-02-01T07:37:00;6.50;78.50
68556;HTU21D;55544;51.032;5.866;2023-02-01T07:39:26;6.37;79.27
68556;HTU21D;55544;51.032;5.866;2023-02-01T07:41:53;6.38;79.18
68556;HTU21D;55544;51.032;5.866;2023-02-01T07:44:19;6.38;79.11
68556;HTU21D;55544;51.032;5.866;2023-02-01T07:46:49;6.37;79.05
68556;HTU21D;55544;51.032;5.866;2023-02-01T07:49:15;6.25;79.24
68556;HTU21D;55544;51.032;5.866;2023-02-01T07:51:40;6.27;79.18
68556;HTU21D;55544;51.032;5.866;2023-02-01T07:54:06;6.25;79.21
68556;HTU21D;55544;51.032;5.866;2023-02-01T07:56:32;6.28;79.08
68556;HTU21D;55544;51.032;5.866;2023-02-01T07:58:58;6.20;79.25
68556;HTU21D;55544;51.032;5.866;2023-02-01T08:01:27;6.14;79.60
68556;HTU21D;55544;51.032;5.866;2023-02-01T08:03:56;6.11;79.75
68556;HTU21D;55544;51.032;5.866;2023-02-01T08:06:23;6.20;79.81
68556;HTU21D;55544;51.032;5.866;2023-02-01T08:08:50;6.17;80.02
68556;HTU21D;55544;51.032;5.866;2023-02-01T08:11:18;6.29;79.54
68556;HTU21D;55544;51.032;5.866;2023-02-01T08:13:44;6.63;78.86
68556;HTU21D;55544;51.032;5.866;2023-02-01T08:16:12;7.73;75.25
68556;HTU21D;55544;51.032;5.866;2023-02-01T08:18:39;7.75;75.06
68556;HTU21D;55544;51.032;5.866;2023-02-01T08:23:38;8.86;71.94
68556;HTU21D;55544;51.032;5.866;2023-02-01T08:28:44;10.05;68.33
68556;HTU21D;55544;51.032;5.866;2023-02-01T08:31:13;10.37;67.07
68556;HTU21D;55544;51.032;5.866;2023-02-01T08:33:41;9.86;67.01
68556;HTU21D;55544;51.032;5.866;2023-02-01T08:36:08;9.44;68.75
68556;HTU21D;55544;51.032;5.866;2023-02-01T08:38:36;9.48;68.31
68556;HTU21D;55544;51.032;5.866;2023-02-01T08:41:11;9.56;68.13
68556;HTU21D;55544;51.032;5.866;2023-02-01T08:43:38;8.82;69.88
68556;HTU21D;55544;51.032;5.866;2023-02-01T08:46:04;8.12;72.60
68556;HTU21D;55544;51.032;5.866;2023-02-01T08:48:31;7.68;74.33
68556;HTU21D;55544;51.032;5.866;2023-02-01T08:51:00;7.55;74.86
68556;HTU21D;55544;51.032;5.866;2023-02-01T08:53:26;7.31;76.23
68556;HTU21D;55544;51.032;5.866;2023-02-01T08:55:51;7.26;76.79
68556;HTU21D;55544;51.032;5.866;2023-02-01T08:58:17;7.22;76.94
68556;HTU21D;55544;51.032;5.866;2023-02-01T09:00:44;7.19;77.21
68556;HTU21D;55544;51.032;5.866;2023-02-01T09:03:13;7.10;77.44
68556;HTU21D;55544;51.032;5.866;2023-02-01T09:05:39;7.08;77.42
68556;HTU21D;55544;51.032;5.866;2023-02-01T09:08:05;7.04;76.98
68556;HTU21D;55544;51.032;5.866;2023-02-01T09:10:32;6.97;78.01
68556;HTU21D;55544;51.032;5.866;2023-02-01T09:12:58;7.00;78.05
68556;HTU21D;55544;51.032;5.866;2023-02-01T09:15:24;7.00;78.11
68556;HTU21D;55544;51.032;5.866;2023-02-01T09:17:49;6.98;78.58
68556;HTU21D;55544;51.032;5.866;2023-02-01T09:20:15;7.09;78.50
68556;HTU21D;55544;51.032;5.866;2023-02-01T09:22:41;7.12;78.46
68556;HTU21D;55544;51.032;5.866;2023-02-01T09:25:08;7.27;78.01
68556;HTU21D;55544;51.032;5.866;2023-02-01T09:27:34;7.24;78.04
68556;HTU21D;55544;51.032;5.866;2023-02-01T09:29:59;7.23;77.82
68556;HTU21D;55544;51.032;5.866;2023-02-01T09:32:25;7.34;77.35
68556;HTU21D;55544;51.032;5.866;2023-02-01T09:34:52;7.32;77.42
68556;HTU21D;55544;51.032;5.866;2023-02-01T09:37:19;7.33;77.57
68556;HTU21D;55544;51.032;5.866;2023-02-01T09:39:45;7.30;77.50
68556;HTU21D;55544;51.032;5.866;2023-02-01T09:48:08;7.40;77.15
68556;HTU21D;55544;51.032;5.866;2023-02-01T09:50:37;7.42;77.37
68556;HTU21D;55544;51.032;5.866;2023-02-01T09:53:15;7.48;77.69
68556;HTU21D;55544;51.032;5.866;2023-02-01T09:55:47;7.52;77.11
68556;HTU21D;55544;51.032;5.866;2023-02-01T09:58:25;7.56;77.13
68556;HTU21D;55544;51.032;5.866;2023-02-01T10:00:56;7.64;76.92
68556;HTU21D;55544;51.032;5.866;2023-02-01T10:03:40;7.65;76.71
68556;HTU21D;55544;51.032;5.866;2023-02-01T10:09:27;7.91;76.50
68556;HTU21D;55544;51.032;5.866;2023-02-01T10:20:42;8.33;75.08
68556;HTU21D;55544;51.032;5.866;2023-02-01T10:25:55;8.45;74.26
68556;HTU21D;55544;51.032;5.866;2023-02-01T10:28:24;8.39;74.47
68556;HTU21D;55544;51.032;5.866;2023-02-01T10:30:56;8.43;74.59
68556;HTU21D;55544;51.032;5.866;2023-02-01T10:36:29;8.52;74.05
68556;HTU21D;55544;51.032;5.866;2023-02-01T10:38:58;8.62;74.18
68556;HTU21D;55544;51.032;5.866;2023-02-01T10:41:34;8.66;72.89
68556;HTU21D;55544;51.032;5.866;2023-02-01T10:44:03;8.79;72.29
68556;HTU21D;55544;51.032;5.866;2023-02-01T10:46:33;8.83;71.77
68556;HTU21D;55544;51.032;5.866;2023-02-01T10:49:03;8.80;73.08
68556;HTU21D;55544;51.032;5.866;2023-02-01T10:54:17;8.93;71.78
68556;HTU21D;55544;51.032;5.866;2023-02-01T10:56:47;8.82;71.52
68556;HTU21D;55544;51.032;5.866;2023-02-01T10:59:24;9.06;71.74
68556;HTU21D;55544;51.032;5.866;2023-02-01T11:01:59;9.09;71.38
68556;HTU21D;55544;51.032;5.866;2023-02-01T11:04:26;9.01;70.64
68556;HTU21D;55544;51.032;5.866;2023-02-01T11:07:06;8.86;71.06
68556;HTU21D;55544;51.032;5.866;2023-02-01T11:09:40;8.95;71.78
68556;HTU21D;55544;51.032;5.866;2023-02-01T11:12:24;9.08;71.36
68556;HTU21D;55544;51.032;5.866;2023-02-01T11:14:50;9.07;70.96
68556;HTU21D;55544;51.032;5.866;2023-02-01T11:19:45;8.98;70.10
68556;HTU21D;55544;51.032;5.866;2023-02-01T11:22:13;9.08;70.58
68556;HTU21D;55544;51.032;5.866;2023-02-01T11:24:40;9.18;70.69
68556;HTU21D;55544;51.032;5.866;2023-02-01T11:27:21;9.26;69.51
68556;HTU21D;55544;51.032;5.866;2023-02-01T11:29:51;9.18;69.40
68556;HTU21D;55544;51.032;5.866;2023-02-01T11:32:20;9.30;69.52
68556;HTU21D;55544;51.032;5.866;2023-02-01T11:35:04;9.23;68.85
68556;HTU21D;55544;51.032;5.866;2023-02-01T11:37:36;9.22;68.66
68556;HTU21D;55544;51.032;5.866;2023-02-01T11:40:25;9.33;68.68
68556;HTU21D;55544;51.032;5.866;2023-02-01T11:42:56;9.41;68.02
68556;HTU21D;55544;51.032;5.866;2023-02-01T11:45:28;9.33;68.02
68556;HTU21D;55544;51.032;5.866;2023-02-01T11:47:56;9.24;68.24
68556;HTU21D;55544;51.032;5.866;2023-02-01T11:50:56;9.17;67.91
68556;HTU21D;55544;51.032;5.866;2023-02-01T11:57:08;9.46;67.56
68556;HTU21D;55544;51.032;5.866;2023-02-01T12:07:45;9.50;66.78
68556;HTU21D;55544;51.032;5.866;2023-02-01T12:10:28;9.63;67.59
68556;HTU21D;55544;51.032;5.866;2023-02-01T12:16:19;9.62;66.78
68556;HTU21D;55544;51.032;5.866;2023-02-01T12:18:53;9.64;67.23
68556;HTU21D;55544;51.032;5.866;2023-02-01T12:21:46;9.55;67.33
68556;HTU21D;55544;51.032;5.866;2023-02-01T12:24:52;0.00;67.59
68556;HTU21D;55544;51.032;5.866;2023-02-01T12:27:56;9.39;67.27
68556;HTU21D;55544;51.032;5.866;2023-02-01T12:30:49;9.46;67.43
68556;HTU21D;55544;51.032;5.866;2023-02-01T12:38:55;9.44;67.20
68556;HTU21D;55544;51.032;5.866;2023-02-01T12:46:59;9.44;66.36
68556;HTU21D;55544;51.032;5.866;2023-02-01T12:49:55;9.52;66.63
68556;HTU21D;55544;51.032;5.866;2023-02-01T13:00:55;9.56;66.23
68556;HTU21D;55544;51.032;5.866;2023-02-01T13:06:08;9.55;65.90
68556;HTU21D;55544;51.032;5.866;2023-02-01T13:11:40;9.52;66.65
68556;HTU21D;55544;51.032;5.866;2023-02-01T13:14:30;9.57;66.14
68556;HTU21D;55544;51.032;5.866;2023-02-01T13:17:03;9.53;66.17
68556;HTU21D;55544;51.032;5.866;2023-02-01T13:19:43;9.53;66.63
68556;HTU21D;55544;51.032;5.866;2023-02-01T13:25:29;9.51;66.63
68556;HTU21D;55544;51.032;5.866;2023-02-01T13:28:45;9.54;67.09
68556;HTU21D;55544;51.032;5.866;2023-02-01T13:41:58;9.60;66.64
68556;HTU21D;55544;51.032;5.866;2023-02-01T13:44:34;9.66;66.11
68556;HTU21D;55544;51.032;5.866;2023-02-01T13:47:33;9.66;65.85
68556;HTU21D;55544;51.032;5.866;2023-02-01T13:50:03;9.62;66.03
68556;HTU21D;55544;51.032;5.866;2023-02-01T13:52:38;9.65;66.52
68556;HTU21D;55544;51.032;5.866;2023-02-01T13:57:49;9.57;66.67
68556;HTU21D;55544;51.032;5.866;2023-02-01T14:00:26;9.62;66.49
68556;HTU21D;55544;51.032;5.866;2023-02-01T14:10:54;9.48;66.75
68556;HTU21D;55544;51.032;5.866;2023-02-01T14:13:38;9.59;66.07
68556;HTU21D;55544;51.032;5.866;2023-02-01T14:21:18;9.78;66.21
68556;HTU21D;55544;51.032;5.866;2023-02-01T14:26:24;9.74;65.98
68556;HTU21D;55544;51.032;5.866;2023-02-01T14:28:59;9.74;66.07
68556;HTU21D;55544;51.032;5.866;2023-02-01T14:31:33;9.82;65.67
68556;HTU21D;55544;51.032;5.866;2023-02-01T14:34:05;9.84;66.00
68556;HTU21D;55544;51.032;5.866;2023-02-01T14:36:47;9.75;65.94
68556;HTU21D;55544;51.032;5.866;2023-02-01T14:39:27;9.85;65.63
68556;HTU21D;55544;51.032;5.866;2023-02-01T14:42:19;9.91;65.37
68556;HTU21D;55544;51.032;5.866;2023-02-01T14:44:44;9.93;65.61
68556;HTU21D;55544;51.032;5.866;2023-02-01T14:47:28;9.86;65.57
68556;HTU21D;55544;51.032;5.866;2023-02-01T14:52:59;9.85;65.23
68556;HTU21D;55544;51.032;5.866;2023-02-01T14:55:35;9.84;65.96
68556;HTU21D;55544;51.032;5.866;2023-02-01T14:58:07;9.93;65.75
68556;HTU21D;55544;51.032;5.866;2023-02-01T15:00:36;9.89;65.37
68556;HTU21D;55544;51.032;5.866;2023-02-01T15:06:25;9.83;65.46
68556;HTU21D;55544;51.032;5.866;2023-02-01T15:09:24;9.81;65.48
68556;HTU21D;55544;51.032;5.866;2023-02-01T15:14:20;9.91;65.65
68556;HTU21D;55544;51.032;5.866;2023-02-01T15:16:45;9.90;65.83
68556;HTU21D;55544;51.032;5.866;2023-02-01T15:19:20;9.85;66.19
68556;HTU21D;55544;51.032;5.866;2023-02-01T15:21:53;9.83;65.76
68556;HTU21D;55544;51.032;5.866;2023-02-01T15:24:22;9.79;66.25
68556;HTU21D;55544;51.032;5.866;2023-02-01T15:26:50;9.81;66.33
68556;HTU21D;55544;51.032;5.866;2023-02-01T15:29:17;9.81;66.65
68556;HTU21D;55544;51.032;5.866;2023-02-01T15:31:48;9.71;66.98
68556;HTU21D;55544;51.032;5.866;2023-02-01T15:34:14;9.71;67.33
68556;HTU21D;55544;51.032;5.866;2023-02-01T15:36:42;9.72;67.59
68556;HTU21D;55544;51.032;5.866;2023-02-01T15:39:23;9.75;67.71
68556;HTU21D;55544;51.032;5.866;2023-02-01T15:41:57;9.79;68.11
68556;HTU21D;55544;51.032;5.866;2023-02-01T15:44:42;9.76;68.04
68556;HTU21D;55544;51.032;5.866;2023-02-01T15:47:25;9.66;68.55
68556;HTU21D;55544;51.032;5.866;2023-02-01T15:49:54;9.61;68.77
68556;HTU21D;55544;51.032;5.866;2023-02-01T15:52:25;9.66;68.54
68556;HTU21D;55544;51.032;5.866;2023-02-01T15:55:05;9.64;68.71
68556;HTU21D;55544;51.032;5.866;2023-02-01T15:57:40;9.69;68.69
68556;HTU21D;55544;51.032;5.866;2023-02-01T16:00:29;9.65;69.09
68556;HTU21D;55544;51.032;5.866;2023-02-01T16:03:02;9.74;69.04
68556;HTU21D;55544;51.032;5.866;2023-02-01T16:05:37;9.63;69.53
68556;HTU21D;55544;51.032;5.866;2023-02-01T16:08:20;9.52;69.94
68556;HTU21D;55544;51.032;5.866;2023-02-01T16:10:50;9.56;69.85
68556;HTU21D;55544;51.032;5.866;2023-02-01T16:13:17;9.47;70.39
68556;HTU21D;55544;51.032;5.866;2023-02-01T16:15:44;9.46;70.44
68556;HTU21D;55544;51.032;5.866;2023-02-01T16:18:13;9.44;70.58
68556;HTU21D;55544;51.032;5.866;2023-02-01T16:20:41;9.45;70.77
68556;HTU21D;55544;51.032;5.866;2023-02-01T16:23:08;9.51;70.61
68556;HTU21D;55544;51.032;5.866;2023-02-01T16:25:37;9.42;70.93
68556;HTU21D;55544;51.032;5.866;2023-02-01T16:28:03;9.50;70.91
68556;HTU21D;55544;51.032;5.866;2023-02-01T16:30:31;9.36;71.22
68556;HTU21D;55544;51.032;5.866;2023-02-01T16:32:59;9.44;70.90
68556;HTU21D;55544;51.032;5.866;2023-02-01T16:35:29;9.40;70.77
68556;HTU21D;55544;51.032;5.866;2023-02-01T16:37:58;9.38;70.97
68556;HTU21D;55544;51.032;5.866;2023-02-01T16:40:24;9.41;71.13
68556;HTU21D;55544;51.032;5.866;2023-02-01T16:42:53;9.34;71.04
68556;HTU21D;55544;51.032;5.866;2023-02-01T16:45:21;9.39;70.82
68556;HTU21D;55544;51.032;5.866;2023-02-01T16:47:49;9.36;70.82
68556;HTU21D;55544;51.032;5.866;2023-02-01T16:50:25;9.40;70.35
68556;HTU21D;55544;51.032;5.866;2023-02-01T16:52:52;9.29;71.20
68556;HTU21D;55544;51.032;5.866;2023-02-01T16:55:20;9.39;70.74
68556;HTU21D;55544;51.032;5.866;2023-02-01T16:57:47;9.25;71.46
68556;HTU21D;55544;51.032;5.866;2023-02-01T17:00:13;9.36;71.35
68556;HTU21D;55544;51.032;5.866;2023-02-01T17:02:41;9.36;71.52
68556;HTU21D;55544;51.032;5.866;2023-02-01T17:05:08;9.08;72.34
68556;HTU21D;55544;51.032;5.866;2023-02-01T17:07:37;9.26;72.03
68556;HTU21D;55544;51.032;5.866;2023-02-01T17:10:05;9.30;72.04
68556;HTU21D;55544;51.032;5.866;2023-02-01T17:12:32;9.19;72.58
68556;HTU21D;55544;51.032;5.866;2023-02-01T17:14:59;9.18;72.67
68556;HTU21D;55544;51.032;5.866;2023-02-01T17:17:37;9.11;72.99
68556;HTU21D;55544;51.032;5.866;2023-02-01T17:20:05;9.08;72.84
68556;HTU21D;55544;51.032;5.866;2023-02-01T17:22:31;9.16;72.80
68556;HTU21D;55544;51.032;5.866;2023-02-01T17:24:57;9.16;72.62
68556;HTU21D;55544;51.032;5.866;2023-02-01T17:27:23;9.15;72.90
68556;HTU21D;55544;51.032;5.866;2023-02-01T17:29:49;9.17;72.83
68556;HTU21D;55544;51.032;5.866;2023-02-01T17:32:20;9.10;72.62
68556;HTU21D;55544;51.032;5.866;2023-02-01T17:34:47;9.08;72.67
68556;HTU21D;55544;51.032;5.866;2023-02-01T17:37:27;9.19;72.61
68556;HTU21D;55544;51.032;5.866;2023-02-01T17:39:53;9.11;72.32
68556;HTU21D;55544;51.032;5.866;2023-02-01T17:42:19;9.15;72.39
68556;HTU21D;55544;51.032;5.866;2023-02-01T17:44:45;9.10;72.46
68556;HTU21D;55544;51.032;5.866;2023-02-01T17:47:11;9.10;72.42
68556;HTU21D;55544;51.032;5.866;2023-02-01T17:49:36;9.14;72.43
68556;HTU21D;55544;51.032;5.866;2023-02-01T17:52:05;9.18;72.29
68556;HTU21D;55544;51.032;5.866;2023-02-01T17:54:31;9.21;72.25
68556;HTU21D;55544;51.032;5.866;2023-02-01T17:56:57;9.17;72.28
68556;HTU21D;55544;51.032;5.866;2023-02-01T17:59:28;9.17;71.77
68556;HTU21D;55544;51.032;5.866;2023-02-01T18:01:53;9.16;71.92
68556;HTU21D;55544;51.032;5.866;2023-02-01T18:04:25;9.24;71.94
68556;HTU21D;55544;51.032;5.866;2023-02-01T18:06:50;9.20;71.86
68556;HTU21D;55544;51.032;5.866;2023-02-01T18:09:16;9.30;71.58
68556;HTU21D;55544;51.032;5.866;2023-02-01T18:11:42;9.20;71.64
68556;HTU21D;55544;51.032;5.866;2023-02-01T18:14:11;9.27;71.54
68556;HTU21D;55544;51.032;5.866;2023-02-01T18:16:40;9.27;71.28